createdAt,value
2023-04-16T00:00:48.501Z,99232.91
2023-04-16T00:03:16.698Z,99229.56
2023-04-16T00:05:44.209Z,99225.88
2023-04-16T00:08:11.588Z,99233.66
2023-04-16T00:10:39.259Z,99223.59
2023-04-16T00:13:06.616Z,99224.16
2023-04-16T00:15:34.163Z,99223.16
2023-04-16T00:18:01.859Z,99224.28
2023-04-16T00:20:29.317Z,99221.31
2023-04-16T00:22:56.692Z,99226.72
2023-04-16T00:25:24.513Z,99224.72
2023-04-16T00:27:51.900Z,99226.69
2023-04-16T00:30:19.551Z,99223.75
2023-04-16T00:32:47.426Z,99226.72
2023-04-16T00:35:14.836Z,99223.31
2023-04-16T00:37:42.336Z,99228.12
2023-04-16T00:40:10.845Z,99228.56
2023-04-16T00:42:38.944Z,99230.25
2023-04-16T00:45:06.919Z,99230.25
2023-04-16T00:47:34.686Z,99230.97
2023-04-16T00:50:04.404Z,99239.44
2023-04-16T00:52:32.881Z,99232.66
2023-04-16T00:55:00.930Z,99230.13
2023-04-16T00:57:28.368Z,99224.47
2023-04-16T00:59:56.506Z,99234.19
2023-04-16T01:02:24.741Z,99241.94
2023-04-16T01:04:52.290Z,99238.13
2023-04-16T01:07:19.979Z,99233.31
2023-04-16T01:09:47.620Z,99237.41
2023-04-16T01:12:15.047Z,99241.41
2023-04-16T01:14:42.705Z,99248.66
2023-04-16T01:17:10.620Z,99236.13
2023-04-16T01:19:38.560Z,99235.56
2023-04-16T01:22:06.147Z,99237.41
2023-04-16T01:24:35.821Z,99238.78
2023-04-16T01:27:03.560Z,99230.50
2023-04-16T01:29:31.047Z,99243.94
2023-04-16T01:31:59.064Z,99243.38
2023-04-16T01:34:26.666Z,99246.63
2023-04-16T01:36:54.062Z,99240.97
2023-04-16T01:39:22.361Z,99236.53
2023-04-16T01:41:49.814Z,99241.16
2023-04-16T01:44:17.214Z,99241.06
2023-04-16T01:46:45.243Z,99231.22
2023-04-16T01:49:12.770Z,99231.47
2023-04-16T01:51:40.194Z,99244.16
2023-04-16T01:54:08.075Z,99246.78
2023-04-16T01:56:35.502Z,99235.16
2023-04-16T01:59:03.285Z,99246.75
2023-04-16T02:01:31.959Z,99249.09
2023-04-16T02:04:00.209Z,99253.78
2023-04-16T02:06:27.901Z,99242.34
2023-04-16T02:08:55.627Z,99245.50
2023-04-16T02:11:23.353Z,99242.09
2023-04-16T02:13:51.307Z,99245.03
2023-04-16T02:16:18.929Z,99250.00
2023-04-16T02:18:47.759Z,99252.41
2023-04-16T02:21:15.686Z,99256.53
2023-04-16T02:23:45.923Z,99257.03
2023-04-16T02:26:13.700Z,99264.22
2023-04-16T02:28:41.833Z,99253.50
2023-04-16T02:31:09.819Z,99264.31
2023-04-16T02:33:38.326Z,99267.38
2023-04-16T02:36:06.322Z,99260.19
2023-04-16T02:38:33.763Z,99270.09
2023-04-16T02:41:01.210Z,99265.16
2023-04-16T02:43:29.182Z,99263.19
2023-04-16T02:45:56.648Z,99260.88
2023-04-16T02:48:24.087Z,99272.53
2023-04-16T02:50:51.761Z,99258.69
2023-04-16T02:53:19.152Z,99266.38
2023-04-16T02:55:53.803Z,99266.38
2023-04-16T02:58:22.866Z,99264.22
2023-04-16T03:00:51.042Z,99266.53
2023-04-16T03:03:18.993Z,99276.25
2023-04-16T03:05:47.133Z,99275.78
2023-04-16T03:08:14.594Z,99269.47
2023-04-16T03:10:42.118Z,99278.88
2023-04-16T03:13:09.837Z,99273.56
2023-04-16T03:15:37.425Z,99276.91
2023-04-16T03:18:04.860Z,99271.94
2023-04-16T03:20:32.713Z,99267.75
2023-04-16T03:23:00.188Z,99264.00
2023-04-16T03:25:28.591Z,99272.09
2023-04-16T03:27:56.893Z,99277.81
2023-04-16T03:30:24.620Z,99281.34
2023-04-16T03:32:52.178Z,99295.22
2023-04-16T03:35:19.961Z,99297.69
2023-04-16T03:37:47.454Z,99299.97
2023-04-16T03:40:15.402Z,99306.41
2023-04-16T03:42:43.309Z,99304.94
2023-04-16T03:45:11.268Z,99314.78
2023-04-16T03:47:38.772Z,99310.31
2023-04-16T03:50:06.838Z,99316.16
2023-04-16T03:52:34.254Z,99321.94
2023-04-16T03:55:03.804Z,99331.03
2023-04-16T03:57:31.715Z,99331.41
2023-04-16T04:00:00.326Z,99332.50
2023-04-16T04:02:28.451Z,99325.66
2023-04-16T04:04:56.326Z,99330.31
2023-04-16T04:07:23.904Z,99326.66
2023-04-16T04:09:52.445Z,99324.97
2023-04-16T04:12:20.132Z,99330.06
2023-04-16T04:14:47.606Z,99321.78
2023-04-16T04:17:15.218Z,99322.09
2023-04-16T04:19:54.298Z,99321.88
2023-04-16T04:22:28.558Z,99323.94
2023-04-16T04:24:56.259Z,99327.91
2023-04-16T04:27:23.877Z,99336.56
2023-04-16T04:29:51.594Z,99355.25
2023-04-16T04:32:19.624Z,99349.34
2023-04-16T04:34:48.546Z,99350.59
2023-04-16T04:37:16.143Z,99343.84
2023-04-16T04:39:44.221Z,99355.91
2023-04-16T04:42:12.491Z,99351.78
2023-04-16T04:44:39.981Z,99351.13
2023-04-16T04:47:08.926Z,99345.47
2023-04-16T04:49:36.362Z,99353.25
2023-04-16T04:52:03.845Z,99353.31
2023-04-16T04:54:32.827Z,99353.06
2023-04-16T04:57:01.240Z,99351.63
2023-04-16T04:59:29.388Z,99353.91
2023-04-16T05:01:57.365Z,99358.81
2023-04-16T05:04:24.826Z,99357.25
2023-04-16T05:06:52.236Z,99354.34
2023-04-16T05:09:19.950Z,99356.94
2023-04-16T05:11:47.303Z,99355.53
2023-04-16T05:14:14.691Z,99354.53
2023-04-16T05:16:42.450Z,99361.28
2023-04-16T05:19:10.153Z,99359.47
2023-04-16T05:21:37.704Z,99364.69
2023-04-16T05:24:06.140Z,99368.63
2023-04-16T05:26:33.568Z,99368.78
2023-04-16T05:29:00.998Z,99377.41
2023-04-16T05:31:28.748Z,99369.34
2023-04-16T05:33:56.228Z,99378.97
2023-04-16T05:36:23.726Z,99374.34
2023-04-16T05:38:51.372Z,99375.87
2023-04-16T05:41:18.743Z,99380.88
2023-04-16T05:43:46.164Z,99374.66
2023-04-16T05:46:13.874Z,99373.81
2023-04-16T05:48:41.301Z,99371.72
2023-04-16T05:51:08.726Z,99370.28
2023-04-16T05:53:36.486Z,99370.72
2023-04-16T05:56:03.960Z,99375.78
2023-04-16T05:58:31.455Z,99375.22
2023-04-16T06:00:59.502Z,99374.66
2023-04-16T06:03:27.681Z,99383.28
2023-04-16T06:05:55.514Z,99389.22
2023-04-16T06:08:23.204Z,99387.38
2023-04-16T06:10:51.274Z,99393.03
2023-04-16T06:13:18.720Z,99399.53
2023-04-16T06:15:46.269Z,99385.47
2023-04-16T06:18:14.384Z,99396.97
2023-04-16T06:20:41.895Z,99394.44
2023-04-16T06:23:09.314Z,99401.78
2023-04-16T06:25:36.981Z,99400.50
2023-04-16T06:28:04.451Z,99398.28
2023-04-16T06:30:31.971Z,99392.88
2023-04-16T06:32:59.720Z,99398.63
2023-04-16T06:35:27.236Z,99398.16
2023-04-16T06:37:54.655Z,99398.19
2023-04-16T06:40:22.556Z,99396.38
2023-04-16T06:42:49.998Z,99394.28
2023-04-16T06:45:17.454Z,99395.66
2023-04-16T06:47:45.137Z,99397.09
2023-04-16T06:50:12.599Z,99393.28
2023-04-16T06:52:40.552Z,99394.59
2023-04-16T06:55:09.802Z,99391.22
2023-04-16T06:57:37.727Z,99387.22
2023-04-16T07:00:05.792Z,99387.00
2023-04-16T07:02:33.580Z,99391.13
2023-04-16T07:05:01.042Z,99386.16
2023-04-16T07:07:28.478Z,99386.06
2023-04-16T07:09:56.299Z,99387.41
2023-04-16T07:12:23.716Z,99388.44
2023-04-16T07:14:51.206Z,99386.50
2023-04-16T07:17:18.880Z,99389.16
2023-04-16T07:19:46.741Z,99393.28
2023-04-16T07:22:14.213Z,99388.97
2023-04-16T07:24:41.890Z,99388.78
2023-04-16T07:27:09.285Z,99392.38
2023-04-16T07:29:36.689Z,99396.34
2023-04-16T07:32:04.454Z,99389.66
2023-04-16T07:34:31.838Z,99389.88
2023-04-16T07:36:59.357Z,99393.84
2023-04-16T07:39:27.000Z,99402.31
2023-04-16T07:41:54.415Z,99395.34
2023-04-16T07:44:21.917Z,99392.78
2023-04-16T07:46:49.604Z,99386.59
2023-04-16T07:49:17.079Z,99390.34
2023-04-16T07:51:44.490Z,99396.34
2023-04-16T07:54:12.157Z,99401.03
2023-04-16T07:56:39.595Z,99394.53
2023-04-16T07:59:21.181Z,99398.75
2023-04-16T08:01:53.060Z,99397.03
2023-04-16T08:04:25.284Z,99396.12
2023-04-16T08:06:53.654Z,99404.63
2023-04-16T08:09:23.045Z,99401.81
2023-04-16T08:11:50.941Z,99396.56
2023-04-16T08:14:18.356Z,99406.25
2023-04-16T08:16:46.148Z,99400.78
2023-04-16T08:19:13.546Z,99406.56
2023-04-16T08:21:41.113Z,99415.81
2023-04-16T08:24:08.850Z,99408.59
2023-04-16T08:26:36.251Z,99399.81
2023-04-16T08:29:03.637Z,99403.75
2023-04-16T08:31:31.826Z,99413.56
2023-04-16T08:34:00.754Z,99408.78
2023-04-16T08:36:28.159Z,99416.31
2023-04-16T08:38:55.994Z,99421.00
2023-04-16T08:41:24.238Z,99420.34
2023-04-16T08:43:52.789Z,99418.66
2023-04-16T08:46:22.423Z,99418.34
2023-04-16T08:48:56.190Z,99414.91
2023-04-16T08:51:24.247Z,99426.50
2023-04-16T08:54:00.459Z,99425.69
2023-04-16T08:56:28.290Z,99429.09
2023-04-16T08:58:55.759Z,99424.44
2023-04-16T09:01:25.010Z,99422.81
2023-04-16T09:03:52.883Z,99430.03
2023-04-16T09:06:20.453Z,99429.81
2023-04-16T09:08:48.291Z,99434.84
2023-04-16T09:11:18.164Z,99437.94
2023-04-16T09:13:46.416Z,99444.78
2023-04-16T09:16:15.293Z,99442.34
2023-04-16T09:18:43.073Z,99443.88
2023-04-16T09:21:11.292Z,99444.72
2023-04-16T09:23:39.026Z,99454.56
2023-04-16T09:26:06.781Z,99444.53
2023-04-16T09:28:40.479Z,99453.91
2023-04-16T09:31:09.559Z,99454.31
2023-04-16T09:33:36.950Z,99453.00
2023-04-16T09:36:04.744Z,99466.25
2023-04-16T09:38:48.390Z,99456.19
2023-04-16T09:41:16.635Z,99463.59
2023-04-16T09:43:58.730Z,99461.38
2023-04-16T09:46:35.399Z,99466.66
2023-04-16T09:49:10.456Z,99464.59
2023-04-16T09:51:40.790Z,99466.87
2023-04-16T09:54:08.810Z,99464.28
2023-04-16T09:56:46.882Z,99465.25
2023-04-16T09:59:21.630Z,99466.38
2023-04-16T10:01:50.054Z,99459.13
2023-04-16T10:04:17.965Z,99460.84
2023-04-16T10:06:48.524Z,99455.47
2023-04-16T10:09:16.267Z,99454.97
2023-04-16T10:11:44.106Z,99457.91
2023-04-16T10:14:11.612Z,99452.75
2023-04-16T10:16:41.272Z,99453.78
2023-04-16T10:19:09.453Z,99445.47
2023-04-16T10:21:37.158Z,99456.44
2023-04-16T10:24:05.016Z,99455.31
2023-04-16T10:26:33.452Z,99448.19
2023-04-16T10:29:00.925Z,99434.06
2023-04-16T10:31:28.628Z,99439.84
2023-04-16T10:33:56.843Z,99444.37
2023-04-16T10:36:26.405Z,99440.81
2023-04-16T10:38:59.594Z,99436.31
2023-04-16T10:41:27.986Z,99437.09
2023-04-16T10:44:12.348Z,99438.22
2023-04-16T10:46:41.821Z,99433.50
2023-04-16T10:49:20.040Z,99435.13
2023-04-16T10:51:54.408Z,99431.06
2023-04-16T10:54:24.335Z,99429.50
2023-04-16T10:56:52.819Z,99425.59
2023-04-16T10:59:22.044Z,99411.16
2023-04-16T11:01:56.381Z,99415.34
2023-04-16T11:04:24.111Z,99412.16
2023-04-16T11:07:00.416Z,99404.81
2023-04-16T11:09:47.068Z,99410.44
2023-04-16T11:12:16.366Z,99411.06
2023-04-16T11:14:48.676Z,99409.31
2023-04-16T11:17:16.134Z,99412.19
2023-04-16T11:19:44.079Z,99407.94
2023-04-16T11:22:17.253Z,99406.59
2023-04-16T11:24:46.537Z,99408.81
2023-04-16T11:27:15.242Z,99410.44
2023-04-16T11:29:43.186Z,99410.91
2023-04-16T11:32:21.314Z,99410.12
2023-04-16T11:34:48.746Z,99412.56
2023-04-16T11:37:20.323Z,99410.59
2023-04-16T11:39:51.986Z,99412.19
2023-04-16T11:42:22.629Z,99406.47
2023-04-16T11:44:55.588Z,99409.66
2023-04-16T11:47:24.554Z,99409.34
2023-04-16T11:49:52.234Z,99411.06
2023-04-16T11:52:35.363Z,99398.44
2023-04-16T11:55:03.515Z,99396.91
2023-04-16T11:57:32.029Z,99394.94
2023-04-16T12:00:02.028Z,99394.56
2023-04-16T12:02:41.126Z,99399.16
2023-04-16T12:05:34.997Z,99389.88
2023-04-16T12:08:04.454Z,99389.38
2023-04-16T12:10:36.904Z,99392.78
2023-04-16T12:13:17.433Z,99388.19
2023-04-16T12:15:51.724Z,99388.88
2023-04-16T12:18:22.464Z,99385.81
2023-04-16T12:20:53.241Z,99388.53
2023-04-16T12:23:28.793Z,99382.44
2023-04-16T12:26:00.017Z,99379.06
2023-04-16T12:28:32.052Z,99387.34
2023-04-16T12:31:00.606Z,99387.97
2023-04-16T12:33:28.344Z,99387.97
2023-04-16T12:35:55.819Z,99391.84
2023-04-16T12:38:24.642Z,99384.13
2023-04-16T12:40:52.411Z,99385.38
2023-04-16T12:43:21.457Z,99386.31
2023-04-16T12:45:49.510Z,99391.78
2023-04-16T12:48:17.047Z,99393.28
2023-04-16T12:50:44.694Z,99380.94
2023-04-16T12:53:12.410Z,99387.50
2023-04-16T12:55:39.810Z,99378.81
2023-04-16T12:58:07.251Z,99374.16
2023-04-16T13:00:34.982Z,99372.75
2023-04-16T13:03:02.465Z,99370.06
2023-04-16T13:05:29.889Z,99371.06
2023-04-16T13:07:57.581Z,99372.22
2023-04-16T13:10:25.060Z,99371.94
2023-04-16T13:12:52.460Z,99368.28
2023-04-16T13:15:20.158Z,99365.41
2023-04-16T13:17:47.627Z,99356.84
2023-04-16T13:20:15.109Z,99359.84
2023-04-16T13:22:42.932Z,99352.25
2023-04-16T13:25:10.301Z,99356.03
2023-04-16T13:27:37.709Z,99356.25
2023-04-16T13:30:06.124Z,99358.72
2023-04-16T13:32:33.609Z,99350.78
2023-04-16T13:35:01.159Z,99350.25
2023-04-16T13:37:28.977Z,99342.59
2023-04-16T13:39:56.674Z,99348.00
2023-04-16T13:42:24.126Z,99342.53
2023-04-16T13:44:54.252Z,99343.38
2023-04-16T13:47:22.020Z,99340.56
2023-04-16T13:49:49.656Z,99340.66
2023-04-16T13:52:17.430Z,99338.66
2023-04-16T13:54:44.904Z,99331.78
2023-04-16T13:57:19.893Z,99335.97
2023-04-16T13:59:47.665Z,99335.16
2023-04-16T14:02:15.233Z,99337.69
2023-04-16T14:04:43.126Z,99334.34
2023-04-16T14:07:10.613Z,99333.72
2023-04-16T14:09:38.078Z,99333.00
2023-04-16T14:12:06.138Z,99334.78
2023-04-16T14:14:33.576Z,99334.53
2023-04-16T14:17:03.234Z,99336.94
2023-04-16T14:19:31.011Z,99337.87
2023-04-16T14:21:58.414Z,99343.25
2023-04-16T14:24:26.054Z,99334.50
2023-04-16T14:26:53.831Z,99341.06
2023-04-16T14:29:21.278Z,99333.78
2023-04-16T14:31:50.214Z,99327.91
2023-04-16T14:34:18.184Z,99326.09
2023-04-16T14:36:45.903Z,99329.13
2023-04-16T14:39:13.500Z,99325.44
2023-04-16T14:41:41.237Z,99323.72
2023-04-16T14:44:08.723Z,99327.56
2023-04-16T14:46:36.222Z,99323.44
2023-04-16T14:49:04.371Z,99319.41
2023-04-16T14:51:31.982Z,99324.78
2023-04-16T14:53:59.614Z,99321.44
2023-04-16T14:56:27.277Z,99318.72
2023-04-16T14:58:54.729Z,99322.47
2023-04-16T15:01:22.290Z,99315.72
2023-04-16T15:03:50.552Z,99314.06
2023-04-16T15:06:19.083Z,99311.91
2023-04-16T15:08:46.605Z,99320.00
2023-04-16T15:11:14.307Z,99317.22
2023-04-16T15:13:41.972Z,99315.34
2023-04-16T15:16:09.472Z,99302.97
2023-04-16T15:18:37.170Z,99308.56
2023-04-16T15:21:04.606Z,99311.09
2023-04-16T15:23:32.062Z,99309.13
2023-04-16T15:25:59.744Z,99312.78
2023-04-16T15:28:27.228Z,99306.34
2023-04-16T15:30:54.987Z,99301.41
2023-04-16T15:33:22.716Z,99306.22
2023-04-16T15:35:51.669Z,99309.19
2023-04-16T15:38:21.349Z,99313.06
2023-04-16T15:40:49.229Z,99314.34
2023-04-16T15:43:16.852Z,99303.94
2023-04-16T15:45:44.893Z,99311.34
2023-04-16T15:48:12.707Z,99321.25
2023-04-16T15:50:40.192Z,99313.69
2023-04-16T15:53:07.894Z,99315.94
2023-04-16T15:55:36.191Z,99310.56
2023-04-16T15:58:03.576Z,99318.56
2023-04-16T16:00:31.166Z,99320.94
2023-04-16T16:02:58.958Z,99313.91
2023-04-16T16:05:27.240Z,99319.41
2023-04-16T16:07:54.845Z,99319.09
2023-04-16T16:10:22.873Z,99319.59
2023-04-16T16:12:50.507Z,99316.84
2023-04-16T16:15:17.910Z,99323.34
2023-04-16T16:17:45.698Z,99319.72
2023-04-16T16:20:13.365Z,99315.44
2023-04-16T16:22:41.867Z,99321.06
2023-04-16T16:25:10.320Z,99320.84
2023-04-16T16:27:37.950Z,99321.22
2023-04-16T16:30:07.386Z,99319.47
2023-04-16T16:32:35.195Z,99328.66
2023-04-16T16:35:02.774Z,99329.50
2023-04-16T16:37:30.373Z,99325.81
2023-04-16T16:39:58.197Z,99321.91
2023-04-16T16:42:26.658Z,99317.19
2023-04-16T16:44:56.706Z,99310.94
2023-04-16T16:47:25.261Z,99317.69
2023-04-16T16:49:54.685Z,99317.06
2023-04-16T16:52:23.974Z,99320.53
2023-04-16T16:54:53.748Z,99318.53
2023-04-16T16:57:21.770Z,99330.09
2023-04-16T16:59:50.470Z,99332.72
2023-04-16T17:02:19.042Z,99329.47
2023-04-16T17:04:46.674Z,99330.94
2023-04-16T17:07:14.103Z,99327.19
2023-04-16T17:09:41.943Z,99330.69
2023-04-16T17:12:09.569Z,99336.94
2023-04-16T17:14:37.198Z,99341.50
2023-04-16T17:17:04.892Z,99338.78
2023-04-16T17:19:32.390Z,99338.63
2023-04-16T17:22:00.329Z,99343.53
2023-04-16T17:24:28.262Z,99347.41
2023-04-16T17:26:55.891Z,99356.88
2023-04-16T17:29:26.078Z,99347.41
2023-04-16T17:31:54.043Z,99351.28
2023-04-16T17:34:21.709Z,99354.00
2023-04-16T17:36:52.404Z,99357.56
2023-04-16T17:39:20.970Z,99363.13
2023-04-16T17:41:54.107Z,99357.38
2023-04-16T17:44:23.251Z,99364.75
2023-04-16T17:46:50.866Z,99369.31
2023-04-16T17:49:18.455Z,99364.16
2023-04-16T17:51:46.488Z,99366.16
2023-04-16T17:54:14.088Z,99367.87
2023-04-16T17:56:41.488Z,99369.44
2023-04-16T17:59:09.379Z,99372.44
2023-04-16T18:01:37.063Z,99369.53
2023-04-16T18:04:04.993Z,99377.19
2023-04-16T18:06:32.739Z,99375.84
2023-04-16T18:09:00.365Z,99377.38
2023-04-16T18:11:30.034Z,99379.56
2023-04-16T18:13:58.822Z,99376.66
2023-04-16T18:16:26.350Z,99378.72
2023-04-16T18:18:54.541Z,99381.56
2023-04-16T18:21:22.075Z,99371.59
2023-04-16T18:23:49.651Z,99374.47
2023-04-16T18:26:20.501Z,99368.03
2023-04-16T18:28:49.625Z,99375.66
2023-04-16T18:31:20.859Z,99380.03
2023-04-16T18:33:55.646Z,99383.37
2023-04-16T18:36:26.908Z,99384.28
2023-04-16T18:39:02.042Z,99392.56
2023-04-16T18:41:30.911Z,99404.41
2023-04-16T18:43:58.683Z,99393.56
2023-04-16T18:46:27.592Z,99401.00
2023-04-16T18:48:55.797Z,99401.69
2023-04-16T18:51:23.534Z,99399.00
2023-04-16T18:53:51.306Z,99397.97
2023-04-16T18:56:19.230Z,99393.34
2023-04-16T18:58:47.791Z,99398.41
2023-04-16T19:01:16.646Z,99388.81
2023-04-16T19:03:44.482Z,99387.59
2023-04-16T19:06:11.925Z,99388.50
2023-04-16T19:08:39.536Z,99385.00
2023-04-16T19:11:07.478Z,99375.34
2023-04-16T19:13:35.120Z,99375.53
2023-04-16T19:16:04.248Z,99377.09
2023-04-16T19:18:32.228Z,99374.31
2023-04-16T19:21:00.921Z,99371.88
2023-04-16T19:23:29.172Z,99368.00
2023-04-16T19:25:57.225Z,99373.06
2023-04-16T19:28:25.529Z,99363.25
2023-04-16T19:30:53.589Z,99369.50
2023-04-16T19:33:21.504Z,99367.81
2023-04-16T19:35:48.990Z,99372.56
2023-04-16T19:38:16.657Z,99367.41
2023-04-16T19:40:46.216Z,99364.47
2023-04-16T19:43:13.945Z,99355.66
2023-04-16T19:45:46.127Z,99352.25
2023-04-16T19:48:14.481Z,99358.44
2023-04-16T19:50:42.284Z,99368.66
2023-04-16T19:53:13.878Z,99372.69
2023-04-16T19:55:42.094Z,99374.56
2023-04-16T19:58:09.990Z,99376.19
2023-04-16T20:00:38.888Z,99372.03
2023-04-16T20:03:06.738Z,99363.66
2023-04-16T20:05:34.195Z,99360.66
2023-04-16T20:08:01.627Z,99366.38
2023-04-16T20:10:31.422Z,99366.78
2023-04-16T20:12:59.185Z,99368.41
2023-04-16T20:15:26.672Z,99363.31
2023-04-16T20:17:56.091Z,99373.09
2023-04-16T20:20:23.799Z,99364.72
2023-04-16T20:22:51.360Z,99373.53
2023-04-16T20:25:19.342Z,99365.31
2023-04-16T20:27:47.401Z,99365.22
2023-04-16T20:30:15.261Z,99364.31
2023-04-16T20:32:42.996Z,99364.22
2023-04-16T20:35:11.591Z,99361.16
2023-04-16T20:37:39.867Z,99353.34
2023-04-16T20:40:09.359Z,99351.81
2023-04-16T20:42:36.824Z,99353.91
2023-04-16T20:45:04.934Z,99358.53
2023-04-16T20:47:34.855Z,99356.28
2023-04-16T20:50:02.925Z,99350.88
2023-04-16T20:52:30.784Z,99360.16
2023-04-16T20:54:58.617Z,99359.75
2023-04-16T20:57:28.058Z,99367.31
2023-04-16T20:59:56.453Z,99354.00
2023-04-16T21:02:24.438Z,99356.72
2023-04-16T21:04:52.166Z,99348.84
2023-04-16T21:07:19.726Z,99346.28
2023-04-16T21:09:47.432Z,99344.06
2023-04-16T21:12:14.858Z,99342.84
2023-04-16T21:14:42.241Z,99344.69
2023-04-16T21:17:09.920Z,99344.47
2023-04-16T21:19:37.295Z,99334.50
2023-04-16T21:22:04.762Z,99343.34
2023-04-16T21:24:32.530Z,99337.44
2023-04-16T21:27:00.644Z,99348.06
2023-04-16T21:29:28.209Z,99345.75
2023-04-16T21:31:55.976Z,99347.69
2023-04-16T21:34:23.456Z,99355.16
2023-04-16T21:36:50.988Z,99340.59
2023-04-16T21:39:19.859Z,99353.13
2023-04-16T21:41:47.726Z,99348.44
2023-04-16T21:44:15.430Z,99342.91
2023-04-16T21:46:43.127Z,99344.72
2023-04-16T21:49:10.687Z,99338.53
2023-04-16T21:51:40.022Z,99329.22
2023-04-16T21:54:08.171Z,99328.31
2023-04-16T21:56:35.572Z,99315.25
2023-04-16T21:59:03.090Z,99319.84
2023-04-16T22:01:30.937Z,99314.97
2023-04-16T22:03:58.968Z,99324.94
2023-04-16T22:06:27.179Z,99330.28
2023-04-16T22:08:54.594Z,99343.28
2023-04-16T22:11:22.585Z,99334.03
2023-04-16T22:13:50.227Z,99327.53
2023-04-16T22:16:17.637Z,99328.59
2023-04-16T22:18:46.334Z,99327.69
2023-04-16T22:21:13.790Z,99330.41
2023-04-16T22:23:41.126Z,99318.28
2023-04-16T22:26:09.205Z,99322.84
2023-04-16T22:28:36.612Z,99320.38
2023-04-16T22:31:04.058Z,99309.34
2023-04-16T22:33:31.673Z,99308.97
2023-04-16T22:36:00.208Z,99306.66
2023-04-16T22:38:27.611Z,99306.13
2023-04-16T22:40:55.391Z,99302.56
2023-04-16T22:43:22.995Z,99301.88
2023-04-16T22:45:50.449Z,99302.59
2023-04-16T22:48:18.676Z,99304.59
2023-04-16T22:50:48.609Z,99310.09
2023-04-16T22:53:16.131Z,99305.31
2023-04-16T22:55:43.848Z,99311.53
2023-04-16T22:58:11.289Z,99302.84
2023-04-16T23:00:39.288Z,99304.53
2023-04-16T23:03:07.218Z,99301.03
2023-04-16T23:05:34.775Z,99302.47
2023-04-16T23:08:02.623Z,99307.94
2023-04-16T23:10:30.313Z,99310.56
2023-04-16T23:12:57.734Z,99316.50
2023-04-16T23:15:25.162Z,99300.16
2023-04-16T23:17:52.863Z,99299.56
2023-04-16T23:20:20.376Z,99291.19
2023-04-16T23:22:47.811Z,99282.97
2023-04-16T23:25:15.630Z,99289.75
2023-04-16T23:27:42.986Z,99297.53
2023-04-16T23:30:10.730Z,99290.25
2023-04-16T23:32:38.646Z,99284.37
2023-04-16T23:35:06.632Z,99279.31
2023-04-16T23:37:34.037Z,99281.28
2023-04-16T23:40:01.898Z,99288.53
2023-04-16T23:42:29.299Z,99283.53
2023-04-16T23:44:56.710Z,99285.41
2023-04-16T23:47:24.508Z,99277.75
2023-04-16T23:49:51.878Z,99270.69
2023-04-16T23:52:19.292Z,99278.59
2023-04-16T23:54:46.934Z,99269.31
2023-04-16T23:57:15.185Z,99263.28
2023-04-16T23:59:42.923Z,99265.19
